sensor_id;sensor_type;location;lat;lon;timestamp;temperature;humidity
65836;SHT30;52595;51.608;7.216;2023-05-16T00:02:23;9.81;97.28
65836;SHT30;52595;51.608;7.216;2023-05-16T00:04:48;9.80;97.46
65836;SHT30;52595;51.608;7.216;2023-05-16T00:07:14;9.83;97.48
65836;SHT30;52595;51.608;7.216;2023-05-16T00:09:39;9.78;97.22
65836;SHT30;52595;51.608;7.216;2023-05-16T00:12:05;9.70;97.16
65836;SHT30;52595;51.608;7.216;2023-05-16T00:14:30;9.67;97.40
65836;SHT30;52595;51.608;7.216;2023-05-16T00:16:56;9.70;97.39
65836;SHT30;52595;51.608;7.216;2023-05-16T00:19:25;9.69;97.32
65836;SHT30;52595;51.608;7.216;2023-05-16T00:21:51;9.60;96.99
65836;SHT30;52595;51.608;7.216;2023-05-16T00:24:17;9.61;97.28
65836;SHT30;52595;51.608;7.216;2023-05-16T00:26:42;9.60;97.51
65836;SHT30;52595;51.608;7.216;2023-05-16T00:29:08;9.58;97.31
65836;SHT30;52595;51.608;7.216;2023-05-16T00:31:33;9.58;97.63
65836;SHT30;52595;51.608;7.216;2023-05-16T00:33:59;9.56;97.90
65836;SHT30;52595;51.608;7.216;2023-05-16T00:36:24;9.57;97.59
65836;SHT30;52595;51.608;7.216;2023-05-16T00:38:50;9.57;97.52
65836;SHT30;52595;51.608;7.216;2023-05-16T00:41:16;9.61;97.80
65836;SHT30;52595;51.608;7.216;2023-05-16T00:43:41;9.56;97.57
65836;SHT30;52595;51.608;7.216;2023-05-16T00:46:07;9.54;97.74
65836;SHT30;52595;51.608;7.216;2023-05-16T00:48:32;9.57;97.68
65836;SHT30;52595;51.608;7.216;2023-05-16T00:50:59;9.60;97.91
65836;SHT30;52595;51.608;7.216;2023-05-16T00:53:25;9.58;98.04
65836;SHT30;52595;51.608;7.216;2023-05-16T00:55:51;9.58;97.96
65836;SHT30;52595;51.608;7.216;2023-05-16T00:58:17;9.51;97.73
65836;SHT30;52595;51.608;7.216;2023-05-16T01:00:43;9.40;97.34
65836;SHT30;52595;51.608;7.216;2023-05-16T01:03:09;9.34;97.49
65836;SHT30;52595;51.608;7.216;2023-05-16T01:05:36;9.32;97.42
65836;SHT30;52595;51.608;7.216;2023-05-16T01:08:01;9.30;97.42
65836;SHT30;52595;51.608;7.216;2023-05-16T01:10:34;9.34;97.68
65836;SHT30;52595;51.608;7.216;2023-05-16T01:13:11;9.26;97.42
65836;SHT30;52595;51.608;7.216;2023-05-16T01:15:49;9.19;97.21
65836;SHT30;52595;51.608;7.216;2023-05-16T01:18:42;9.06;97.10
65836;SHT30;52595;51.608;7.216;2023-05-16T01:21:15;8.86;96.96
65836;SHT30;52595;51.608;7.216;2023-05-16T01:24:12;8.62;96.38
65836;SHT30;52595;51.608;7.216;2023-05-16T01:26:40;8.52;96.57
65836;SHT30;52595;51.608;7.216;2023-05-16T01:29:06;8.40;96.54
65836;SHT30;52595;51.608;7.216;2023-05-16T01:31:31;8.34;96.78
65836;SHT30;52595;51.608;7.216;2023-05-16T01:33:57;8.26;96.45
65836;SHT30;52595;51.608;7.216;2023-05-16T01:36:41;8.28;97.04
65836;SHT30;52595;51.608;7.216;2023-05-16T01:39:14;8.23;96.51
65836;SHT30;52595;51.608;7.216;2023-05-16T01:41:57;8.18;96.39
65836;SHT30;52595;51.608;7.216;2023-05-16T01:44:39;8.10;96.32
65836;SHT30;52595;51.608;7.216;2023-05-16T01:47:11;8.08;96.27
65836;SHT30;52595;51.608;7.216;2023-05-16T01:49:38;8.07;96.25
65836;SHT30;52595;51.608;7.216;2023-05-16T01:52:11;8.04;96.22
65836;SHT30;52595;51.608;7.216;2023-05-16T01:54:40;8.04;96.52
65836;SHT30;52595;51.608;7.216;2023-05-16T01:57:07;8.04;96.61
65836;SHT30;52595;51.608;7.216;2023-05-16T01:59:34;8.01;96.55
65836;SHT30;52595;51.608;7.216;2023-05-16T02:02:00;7.97;96.56
65836;SHT30;52595;51.608;7.216;2023-05-16T02:04:25;8.00;96.87
65836;SHT30;52595;51.608;7.216;2023-05-16T02:06:51;8.00;96.88
65836;SHT30;52595;51.608;7.216;2023-05-16T02:09:17;7.98;96.83
65836;SHT30;52595;51.608;7.216;2023-05-16T02:11:42;8.03;96.98
65836;SHT30;52595;51.608;7.216;2023-05-16T02:14:08;8.04;97.23
65836;SHT30;52595;51.608;7.216;2023-05-16T02:16:34;8.01;97.15
65836;SHT30;52595;51.608;7.216;2023-05-16T02:18:59;8.04;97.37
65836;SHT30;52595;51.608;7.216;2023-05-16T02:21:25;8.04;97.11
65836;SHT30;52595;51.608;7.216;2023-05-16T02:23:51;8.00;97.07
65836;SHT30;52595;51.608;7.216;2023-05-16T02:26:16;8.00;97.33
65836;SHT30;52595;51.608;7.216;2023-05-16T02:28:42;8.01;97.32
65836;SHT30;52595;51.608;7.216;2023-05-16T02:31:07;8.01;97.06
65836;SHT30;52595;51.608;7.216;2023-05-16T02:33:32;8.03;97.27
65836;SHT30;52595;51.608;7.216;2023-05-16T02:35:58;8.01;97.29
65836;SHT30;52595;51.608;7.216;2023-05-16T02:38:24;8.00;96.91
65836;SHT30;52595;51.608;7.216;2023-05-16T02:40:49;8.00;97.27
65836;SHT30;52595;51.608;7.216;2023-05-16T02:43:15;8.01;96.83
65836;SHT30;52595;51.608;7.216;2023-05-16T02:45:40;8.00;96.89
65836;SHT30;52595;51.608;7.216;2023-05-16T02:48:06;8.01;97.05
65836;SHT30;52595;51.608;7.216;2023-05-16T02:50:32;8.00;97.33
65836;SHT30;52595;51.608;7.216;2023-05-16T02:52:58;8.06;97.13
65836;SHT30;52595;51.608;7.216;2023-05-16T02:55:27;8.04;97.34
65836;SHT30;52595;51.608;7.216;2023-05-16T02:57:52;8.04;97.66
65836;SHT30;52595;51.608;7.216;2023-05-16T03:00:18;8.10;97.58
65836;SHT30;52595;51.608;7.216;2023-05-16T03:02:43;8.14;97.31
65836;SHT30;52595;51.608;7.216;2023-05-16T03:05:09;8.13;97.21
65836;SHT30;52595;51.608;7.216;2023-05-16T03:07:35;8.13;96.87
65836;SHT30;52595;51.608;7.216;2023-05-16T03:10:02;8.08;97.08
65836;SHT30;52595;51.608;7.216;2023-05-16T03:12:27;8.03;96.67
65836;SHT30;52595;51.608;7.216;2023-05-16T03:14:53;8.01;96.44
65836;SHT30;52595;51.608;7.216;2023-05-16T03:17:18;7.98;96.67
65836;SHT30;52595;51.608;7.216;2023-05-16T03:19:43;8.01;96.45
65836;SHT30;52595;51.608;7.216;2023-05-16T03:22:09;7.94;96.73
65836;SHT30;52595;51.608;7.216;2023-05-16T03:24:34;7.83;95.58
65836;SHT30;52595;51.608;7.216;2023-05-16T03:27:00;7.80;96.17
65836;SHT30;52595;51.608;7.216;2023-05-16T03:29:25;7.77;96.55
65836;SHT30;52595;51.608;7.216;2023-05-16T03:31:51;7.72;96.02
65836;SHT30;52595;51.608;7.216;2023-05-16T03:34:17;7.62;95.80
65836;SHT30;52595;51.608;7.216;2023-05-16T03:36:42;7.60;95.60
65836;SHT30;52595;51.608;7.216;2023-05-16T03:39:08;7.49;95.13
65836;SHT30;52595;51.608;7.216;2023-05-16T03:41:33;7.43;95.73
65836;SHT30;52595;51.608;7.216;2023-05-16T03:43:59;7.33;95.27
65836;SHT30;52595;51.608;7.216;2023-05-16T03:46:24;7.31;95.58
65836;SHT30;52595;51.608;7.216;2023-05-16T03:48:50;7.23;95.98
65836;SHT30;52595;51.608;7.216;2023-05-16T03:51:15;7.15;95.95
65836;SHT30;52595;51.608;7.216;2023-05-16T03:53:40;7.09;95.49
65836;SHT30;52595;51.608;7.216;2023-05-16T03:56:06;7.07;95.68
65836;SHT30;52595;51.608;7.216;2023-05-16T03:58:32;6.97;96.14
65836;SHT30;52595;51.608;7.216;2023-05-16T04:00:57;6.98;96.21
65836;SHT30;52595;51.608;7.216;2023-05-16T04:03:23;6.95;96.31
65836;SHT30;52595;51.608;7.216;2023-05-16T04:05:53;6.94;96.18
65836;SHT30;52595;51.608;7.216;2023-05-16T04:08:19;6.89;96.71
65836;SHT30;52595;51.608;7.216;2023-05-16T04:10:45;6.84;96.55
65836;SHT30;52595;51.608;7.216;2023-05-16T04:13:10;6.84;96.59
65836;SHT30;52595;51.608;7.216;2023-05-16T04:15:35;6.83;96.62
65836;SHT30;52595;51.608;7.216;2023-05-16T04:18:01;6.83;96.68
65836;SHT30;52595;51.608;7.216;2023-05-16T04:20:26;6.77;96.73
65836;SHT30;52595;51.608;7.216;2023-05-16T04:22:52;6.74;96.81
65836;SHT30;52595;51.608;7.216;2023-05-16T04:25:17;6.77;96.43
65836;SHT30;52595;51.608;7.216;2023-05-16T04:27:43;6.71;96.73
65836;SHT30;52595;51.608;7.216;2023-05-16T04:30:09;6.77;96.63
65836;SHT30;52595;51.608;7.216;2023-05-16T04:32:35;6.77;96.34
65836;SHT30;52595;51.608;7.216;2023-05-16T04:35:02;6.77;96.33
65836;SHT30;52595;51.608;7.216;2023-05-16T04:37:27;6.76;96.12
65836;SHT30;52595;51.608;7.216;2023-05-16T04:39:53;6.80;95.83
65836;SHT30;52595;51.608;7.216;2023-05-16T04:42:19;6.88;95.34
65836;SHT30;52595;51.608;7.216;2023-05-16T04:44:44;6.85;95.12
65836;SHT30;52595;51.608;7.216;2023-05-16T04:47:12;6.88;94.95
65836;SHT30;52595;51.608;7.216;2023-05-16T04:49:37;6.91;94.74
65836;SHT30;52595;51.608;7.216;2023-05-16T04:52:03;6.97;94.32
65836;SHT30;52595;51.608;7.216;2023-05-16T04:54:29;7.05;93.71
65836;SHT30;52595;51.608;7.216;2023-05-16T04:56:54;7.14;93.48
65836;SHT30;52595;51.608;7.216;2023-05-16T04:59:19;7.16;93.38
65836;SHT30;52595;51.608;7.216;2023-05-16T05:01:45;7.15;93.37
65836;SHT30;52595;51.608;7.216;2023-05-16T05:04:11;7.15;93.13
65836;SHT30;52595;51.608;7.216;2023-05-16T05:06:36;7.18;93.52
65836;SHT30;52595;51.608;7.216;2023-05-16T05:09:02;7.16;93.45
65836;SHT30;52595;51.608;7.216;2023-05-16T05:11:30;7.22;93.43
65836;SHT30;52595;51.608;7.216;2023-05-16T05:13:55;7.23;93.18
65836;SHT30;52595;51.608;7.216;2023-05-16T05:16:20;7.28;93.11
65836;SHT30;52595;51.608;7.216;2023-05-16T05:18:46;7.28;92.92
65836;SHT30;52595;51.608;7.216;2023-05-16T05:21:11;7.31;92.74
65836;SHT30;52595;51.608;7.216;2023-05-16T05:23:37;7.31;92.13
65836;SHT30;52595;51.608;7.216;2023-05-16T05:26:02;7.35;92.37
65836;SHT30;52595;51.608;7.216;2023-05-16T05:28:28;7.42;92.69
65836;SHT30;52595;51.608;7.216;2023-05-16T05:30:53;7.41;91.81
65836;SHT30;52595;51.608;7.216;2023-05-16T05:33:18;7.46;91.54
65836;SHT30;52595;51.608;7.216;2023-05-16T05:35:44;7.55;91.45
65836;SHT30;52595;51.608;7.216;2023-05-16T05:38:09;7.52;91.24
65836;SHT30;52595;51.608;7.216;2023-05-16T05:40:35;7.55;91.35
65836;SHT30;52595;51.608;7.216;2023-05-16T05:43:00;7.59;91.24
65836;SHT30;52595;51.608;7.216;2023-05-16T05:45:26;7.59;91.37
65836;SHT30;52595;51.608;7.216;2023-05-16T05:47:51;7.60;91.29
65836;SHT30;52595;51.608;7.216;2023-05-16T05:50:17;7.76;91.75
65836;SHT30;52595;51.608;7.216;2023-05-16T05:52:42;7.79;91.46
65836;SHT30;52595;51.608;7.216;2023-05-16T05:55:08;7.80;91.39
65836;SHT30;52595;51.608;7.216;2023-05-16T05:57:33;7.82;90.94
65836;SHT30;52595;51.608;7.216;2023-05-16T05:59:58;7.79;90.75
65836;SHT30;52595;51.608;7.216;2023-05-16T06:02:24;7.84;90.49
65836;SHT30;52595;51.608;7.216;2023-05-16T06:04:49;7.89;90.71
65836;SHT30;52595;51.608;7.216;2023-05-16T06:07:15;7.93;90.68
65836;SHT30;52595;51.608;7.216;2023-05-16T06:09:41;8.00;90.12
65836;SHT30;52595;51.608;7.216;2023-05-16T06:12:08;8.07;90.03
65836;SHT30;52595;51.608;7.216;2023-05-16T06:14:33;8.13;89.80
65836;SHT30;52595;51.608;7.216;2023-05-16T06:16:59;8.20;89.95
65836;SHT30;52595;51.608;7.216;2023-05-16T06:19:24;8.21;90.03
65836;SHT30;52595;51.608;7.216;2023-05-16T06:21:49;8.28;90.18
65836;SHT30;52595;51.608;7.216;2023-05-16T06:24:15;8.30;89.43
65836;SHT30;52595;51.608;7.216;2023-05-16T06:26:40;8.37;89.47
65836;SHT30;52595;51.608;7.216;2023-05-16T06:29:06;8.41;89.03
65836;SHT30;52595;51.608;7.216;2023-05-16T06:31:31;8.41;88.75
65836;SHT30;52595;51.608;7.216;2023-05-16T06:33:57;8.44;88.85
65836;SHT30;52595;51.608;7.216;2023-05-16T06:36:22;8.51;88.42
65836;SHT30;52595;51.608;7.216;2023-05-16T06:38:48;8.59;88.78
65836;SHT30;52595;51.608;7.216;2023-05-16T06:41:14;8.64;88.34
65836;SHT30;52595;51.608;7.216;2023-05-16T06:43:40;8.69;87.59
65836;SHT30;52595;51.608;7.216;2023-05-16T06:46:05;8.76;87.36
65836;SHT30;52595;51.608;7.216;2023-05-16T06:48:31;8.86;87.06
65836;SHT30;52595;51.608;7.216;2023-05-16T06:50:56;8.91;85.95
65836;SHT30;52595;51.608;7.216;2023-05-16T06:53:22;9.12;86.27
65836;SHT30;52595;51.608;7.216;2023-05-16T06:55:47;9.29;85.80
65836;SHT30;52595;51.608;7.216;2023-05-16T06:58:13;9.34;84.87
65836;SHT30;52595;51.608;7.216;2023-05-16T07:00:38;9.42;84.28
65836;SHT30;52595;51.608;7.216;2023-05-16T07:03:04;9.63;84.50
65836;SHT30;52595;51.608;7.216;2023-05-16T07:05:29;9.78;83.21
65836;SHT30;52595;51.608;7.216;2023-05-16T07:07:56;10.05;83.20
65836;SHT30;52595;51.608;7.216;2023-05-16T07:10:22;9.87;80.27
65836;SHT30;52595;51.608;7.216;2023-05-16T07:12:47;10.09;81.28
65836;SHT30;52595;51.608;7.216;2023-05-16T07:15:12;10.14;79.32
65836;SHT30;52595;51.608;7.216;2023-05-16T07:17:38;10.22;79.87
65836;SHT30;52595;51.608;7.216;2023-05-16T07:20:05;10.11;78.02
65836;SHT30;52595;51.608;7.216;2023-05-16T07:22:30;10.21;78.89
65836;SHT30;52595;51.608;7.216;2023-05-16T07:24:56;10.41;77.67
65836;SHT30;52595;51.608;7.216;2023-05-16T07:27:25;10.27;76.40
65836;SHT30;52595;51.608;7.216;2023-05-16T07:29:50;10.41;77.03
65836;SHT30;52595;51.608;7.216;2023-05-16T07:32:15;10.63;76.68
65836;SHT30;52595;51.608;7.216;2023-05-16T07:34:41;10.55;75.27
65836;SHT30;52595;51.608;7.216;2023-05-16T07:37:06;10.69;75.36
65836;SHT30;52595;51.608;7.216;2023-05-16T07:39:39;10.97;75.29
65836;SHT30;52595;51.608;7.216;2023-05-16T07:42:08;10.75;71.91
65836;SHT30;52595;51.608;7.216;2023-05-16T07:44:34;10.46;69.77
65836;SHT30;52595;51.608;7.216;2023-05-16T07:47:00;10.51;70.83
65836;SHT30;52595;51.608;7.216;2023-05-16T07:49:25;10.59;70.06
65836;SHT30;52595;51.608;7.216;2023-05-16T07:51:51;10.79;70.40
65836;SHT30;52595;51.608;7.216;2023-05-16T07:54:16;10.82;69.01
65836;SHT30;52595;51.608;7.216;2023-05-16T07:56:41;10.88;69.31
65836;SHT30;52595;51.608;7.216;2023-05-16T07:59:07;11.12;69.84
65836;SHT30;52595;51.608;7.216;2023-05-16T08:01:32;11.12;68.06
65836;SHT30;52595;51.608;7.216;2023-05-16T08:03:58;11.06;67.12
65836;SHT30;52595;51.608;7.216;2023-05-16T08:06:23;11.28;66.39
65836;SHT30;52595;51.608;7.216;2023-05-16T08:08:49;11.75;67.99
65836;SHT30;52595;51.608;7.216;2023-05-16T08:11:15;12.06;66.90
65836;SHT30;52595;51.608;7.216;2023-05-16T08:13:40;11.97;66.55
65836;SHT30;52595;51.608;7.216;2023-05-16T08:16:06;12.11;68.57
65836;SHT30;52595;51.608;7.216;2023-05-16T08:18:31;12.40;66.96
65836;SHT30;52595;51.608;7.216;2023-05-16T08:20:56;11.99;68.13
65836;SHT30;52595;51.608;7.216;2023-05-16T08:23:22;11.77;67.99
65836;SHT30;52595;51.608;7.216;2023-05-16T08:25:47;11.82;68.41
65836;SHT30;52595;51.608;7.216;2023-05-16T08:28:13;11.54;66.71
65836;SHT30;52595;51.608;7.216;2023-05-16T08:30:38;11.41;67.81
65836;SHT30;52595;51.608;7.216;2023-05-16T08:33:05;11.10;68.23
65836;SHT30;52595;51.608;7.216;2023-05-16T08:35:30;11.03;67.12
65836;SHT30;52595;51.608;7.216;2023-05-16T08:37:56;11.06;68.23
65836;SHT30;52595;51.608;7.216;2023-05-16T08:40:24;11.30;68.26
65836;SHT30;52595;51.608;7.216;2023-05-16T08:42:50;11.31;67.17
65836;SHT30;52595;51.608;7.216;2023-05-16T08:45:16;11.30;66.72
65836;SHT30;52595;51.608;7.216;2023-05-16T08:47:42;11.50;67.15
65836;SHT30;52595;51.608;7.216;2023-05-16T08:50:10;11.84;67.44
65836;SHT30;52595;51.608;7.216;2023-05-16T08:52:37;12.11;65.14
65836;SHT30;52595;51.608;7.216;2023-05-16T08:55:04;12.14;64.83
65836;SHT30;52595;51.608;7.216;2023-05-16T08:57:32;12.12;63.14
65836;SHT30;52595;51.608;7.216;2023-05-16T09:00:00;12.24;63.26
65836;SHT30;52595;51.608;7.216;2023-05-16T09:02:31;12.84;62.29
65836;SHT30;52595;51.608;7.216;2023-05-16T09:04:57;13.04;60.37
65836;SHT30;52595;51.608;7.216;2023-05-16T09:07:23;13.15;60.45
65836;SHT30;52595;51.608;7.216;2023-05-16T09:09:49;13.25;61.51
65836;SHT30;52595;51.608;7.216;2023-05-16T09:12:14;13.25;60.13
65836;SHT30;52595;51.608;7.216;2023-05-16T09:14:41;12.92;60.93
65836;SHT30;52595;51.608;7.216;2023-05-16T09:17:07;12.52;61.33
65836;SHT30;52595;51.608;7.216;2023-05-16T09:19:43;12.39;61.90
65836;SHT30;52595;51.608;7.216;2023-05-16T09:22:12;12.17;63.03
65836;SHT30;52595;51.608;7.216;2023-05-16T09:24:39;12.30;63.73
65836;SHT30;52595;51.608;7.216;2023-05-16T09:27:09;12.38;63.64
65836;SHT30;52595;51.608;7.216;2023-05-16T09:29:35;12.43;62.11
65836;SHT30;52595;51.608;7.216;2023-05-16T09:32:11;12.67;62.77
65836;SHT30;52595;51.608;7.216;2023-05-16T09:34:48;12.77;62.72
65836;SHT30;52595;51.608;7.216;2023-05-16T09:37:14;12.70;62.76
65836;SHT30;52595;51.608;7.216;2023-05-16T09:39:47;12.82;59.89
65836;SHT30;52595;51.608;7.216;2023-05-16T09:42:18;13.21;59.91
65836;SHT30;52595;51.608;7.216;2023-05-16T09:44:53;13.38;58.35
65836;SHT30;52595;51.608;7.216;2023-05-16T09:47:19;13.45;58.92
65836;SHT30;52595;51.608;7.216;2023-05-16T09:49:46;13.95;57.92
65836;SHT30;52595;51.608;7.216;2023-05-16T09:52:13;14.40;57.28
65836;SHT30;52595;51.608;7.216;2023-05-16T09:54:39;14.28;56.22
65836;SHT30;52595;51.608;7.216;2023-05-16T09:57:05;14.29;58.86
65836;SHT30;52595;51.608;7.216;2023-05-16T09:59:37;13.65;59.12
65836;SHT30;52595;51.608;7.216;2023-05-16T10:02:04;13.28;60.30
65836;SHT30;52595;51.608;7.216;2023-05-16T10:04:30;13.40;61.45
65836;SHT30;52595;51.608;7.216;2023-05-16T10:06:56;13.04;60.99
65836;SHT30;52595;51.608;7.216;2023-05-16T10:09:22;13.58;62.10
65836;SHT30;52595;51.608;7.216;2023-05-16T10:11:48;13.48;60.97
65836;SHT30;52595;51.608;7.216;2023-05-16T10:14:19;13.89;59.52
65836;SHT30;52595;51.608;7.216;2023-05-16T10:16:47;14.10;59.10
65836;SHT30;52595;51.608;7.216;2023-05-16T10:19:15;14.67;57.20
65836;SHT30;52595;51.608;7.216;2023-05-16T10:21:45;14.62;56.21
65836;SHT30;52595;51.608;7.216;2023-05-16T10:24:17;14.47;56.40
65836;SHT30;52595;51.608;7.216;2023-05-16T10:26:46;13.99;56.10
65836;SHT30;52595;51.608;7.216;2023-05-16T10:29:12;13.89;57.81
65836;SHT30;52595;51.608;7.216;2023-05-16T10:31:38;14.26;57.81
65836;SHT30;52595;51.608;7.216;2023-05-16T10:34:03;14.16;58.48
65836;SHT30;52595;51.608;7.216;2023-05-16T10:36:29;14.42;58.14
65836;SHT30;52595;51.608;7.216;2023-05-16T10:38:56;14.28;58.63
65836;SHT30;52595;51.608;7.216;2023-05-16T10:41:22;14.19;59.16
65836;SHT30;52595;51.608;7.216;2023-05-16T10:43:57;14.49;59.07
65836;SHT30;52595;51.608;7.216;2023-05-16T10:46:23;14.93;58.89
65836;SHT30;52595;51.608;7.216;2023-05-16T10:48:49;15.17;57.22
65836;SHT30;52595;51.608;7.216;2023-05-16T10:51:34;15.39;58.59
65836;SHT30;52595;51.608;7.216;2023-05-16T10:54:08;14.66;58.51
65836;SHT30;52595;51.608;7.216;2023-05-16T10:56:33;14.57;59.38
65836;SHT30;52595;51.608;7.216;2023-05-16T10:59:02;15.24;57.26
65836;SHT30;52595;51.608;7.216;2023-05-16T11:01:33;15.05;57.94
65836;SHT30;52595;51.608;7.216;2023-05-16T11:19:29;16.30;56.28
65836;SHT30;52595;51.608;7.216;2023-05-16T11:27:20;16.49;56.90
65836;SHT30;52595;51.608;7.216;2023-05-16T11:29:46;17.78;52.35
65836;SHT30;52595;51.608;7.216;2023-05-16T11:32:11;17.75;52.04
65836;SHT30;52595;51.608;7.216;2023-05-16T11:34:37;16.84;53.53
65836;SHT30;52595;51.608;7.216;2023-05-16T11:37:03;16.33;53.51
65836;SHT30;52595;51.608;7.216;2023-05-16T11:39:30;16.57;53.06
65836;SHT30;52595;51.608;7.216;2023-05-16T11:41:56;17.36;53.78
65836;SHT30;52595;51.608;7.216;2023-05-16T11:44:21;17.14;51.35
65836;SHT30;52595;51.608;7.216;2023-05-16T11:46:47;17.53;52.47
65836;SHT30;52595;51.608;7.216;2023-05-16T11:49:12;18.78;49.65
65836;SHT30;52595;51.608;7.216;2023-05-16T11:51:41;17.87;51.09
65836;SHT30;52595;51.608;7.216;2023-05-16T11:54:10;18.03;50.77
65836;SHT30;52595;51.608;7.216;2023-05-16T11:56:38;17.69;50.85
65836;SHT30;52595;51.608;7.216;2023-05-16T11:59:04;19.20;48.93
65836;SHT30;52595;51.608;7.216;2023-05-16T12:01:39;18.44;47.84
65836;SHT30;52595;51.608;7.216;2023-05-16T12:04:12;18.24;48.04
65836;SHT30;52595;51.608;7.216;2023-05-16T12:06:38;17.22;52.14
65836;SHT30;52595;51.608;7.216;2023-05-16T12:09:05;16.40;53.61
65836;SHT30;52595;51.608;7.216;2023-05-16T12:11:39;15.51;55.30
65836;SHT30;52595;51.608;7.216;2023-05-16T12:14:09;14.85;56.81
65836;SHT30;52595;51.608;7.216;2023-05-16T12:16:36;14.80;57.52
65836;SHT30;52595;51.608;7.216;2023-05-16T12:19:04;14.70;58.05
65836;SHT30;52595;51.608;7.216;2023-05-16T12:21:30;14.67;58.41
65836;SHT30;52595;51.608;7.216;2023-05-16T12:23:56;14.76;57.91
65836;SHT30;52595;51.608;7.216;2023-05-16T12:26:29;15.89;56.78
65836;SHT30;52595;51.608;7.216;2023-05-16T12:28:59;17.25;53.47
65836;SHT30;52595;51.608;7.216;2023-05-16T12:31:28;17.89;50.82
65836;SHT30;52595;51.608;7.216;2023-05-16T12:33:55;18.27;49.05
65836;SHT30;52595;51.608;7.216;2023-05-16T12:36:21;18.65;48.79
65836;SHT30;52595;51.608;7.216;2023-05-16T12:38:48;17.66;48.82
65836;SHT30;52595;51.608;7.216;2023-05-16T12:41:22;16.75;53.59
65836;SHT30;52595;51.608;7.216;2023-05-16T12:43:48;16.09;53.39
65836;SHT30;52595;51.608;7.216;2023-05-16T12:46:14;15.51;53.66
65836;SHT30;52595;51.608;7.216;2023-05-16T12:48:40;14.85;56.30
65836;SHT30;52595;51.608;7.216;2023-05-16T12:51:16;14.83;57.47
65836;SHT30;52595;51.608;7.216;2023-05-16T12:53:47;14.73;57.84
65836;SHT30;52595;51.608;7.216;2023-05-16T12:56:14;14.47;57.48
65836;SHT30;52595;51.608;7.216;2023-05-16T12:58:40;14.23;57.52
65836;SHT30;52595;51.608;7.216;2023-05-16T13:01:06;14.36;55.89
65836;SHT30;52595;51.608;7.216;2023-05-16T13:03:32;14.37;53.52
65836;SHT30;52595;51.608;7.216;2023-05-16T13:05:58;16.75;49.62
65836;SHT30;52595;51.608;7.216;2023-05-16T13:08:25;18.94;45.01
65836;SHT30;52595;51.608;7.216;2023-05-16T13:10:50;19.74;41.96
65836;SHT30;52595;51.608;7.216;2023-05-16T13:13:16;18.84;42.83
65836;SHT30;52595;51.608;7.216;2023-05-16T13:15:43;18.92;43.03
65836;SHT30;52595;51.608;7.216;2023-05-16T13:18:09;18.94;41.29
65836;SHT30;52595;51.608;7.216;2023-05-16T13:20:34;19.76;40.66
65836;SHT30;52595;51.608;7.216;2023-05-16T13:22:59;21.18;40.05
65836;SHT30;52595;51.608;7.216;2023-05-16T13:25:25;21.22;39.92
65836;SHT30;52595;51.608;7.216;2023-05-16T13:27:50;20.24;42.03
65836;SHT30;52595;51.608;7.216;2023-05-16T13:30:15;20.47;41.97
65836;SHT30;52595;51.608;7.216;2023-05-16T13:32:41;19.39;43.27
65836;SHT30;52595;51.608;7.216;2023-05-16T13:35:07;19.66;42.31
65836;SHT30;52595;51.608;7.216;2023-05-16T13:37:34;18.41;44.40
65836;SHT30;52595;51.608;7.216;2023-05-16T13:39:59;17.42;44.81
65836;SHT30;52595;51.608;7.216;2023-05-16T13:42:25;16.89;47.69
65836;SHT30;52595;51.608;7.216;2023-05-16T13:44:50;17.29;47.45
65836;SHT30;52595;51.608;7.216;2023-05-16T13:47:16;17.35;45.77
65836;SHT30;52595;51.608;7.216;2023-05-16T13:49:41;16.87;47.30
65836;SHT30;52595;51.608;7.216;2023-05-16T13:52:07;16.40;48.07
65836;SHT30;52595;51.608;7.216;2023-05-16T13:54:32;16.23;49.30
65836;SHT30;52595;51.608;7.216;2023-05-16T13:56:58;16.53;47.70
65836;SHT30;52595;51.608;7.216;2023-05-16T13:59:23;17.73;46.88
65836;SHT30;52595;51.608;7.216;2023-05-16T14:01:49;18.50;45.76
65836;SHT30;52595;51.608;7.216;2023-05-16T14:04:15;18.38;46.14
65836;SHT30;52595;51.608;7.216;2023-05-16T14:06:40;17.27;47.17
65836;SHT30;52595;51.608;7.216;2023-05-16T14:09:06;16.27;49.46
65836;SHT30;52595;51.608;7.216;2023-05-16T14:11:32;16.22;50.20
65836;SHT30;52595;51.608;7.216;2023-05-16T14:13:58;15.93;50.78
65836;SHT30;52595;51.608;7.216;2023-05-16T14:16:23;15.82;51.02
65836;SHT30;52595;51.608;7.216;2023-05-16T14:18:49;15.86;54.53
65836;SHT30;52595;51.608;7.216;2023-05-16T14:21:14;15.93;51.59
65836;SHT30;52595;51.608;7.216;2023-05-16T14:23:40;15.82;51.64
65836;SHT30;52595;51.608;7.216;2023-05-16T14:26:06;15.79;51.95
65836;SHT30;52595;51.608;7.216;2023-05-16T14:28:31;15.58;51.95
65836;SHT30;52595;51.608;7.216;2023-05-16T14:31:00;15.39;52.48
65836;SHT30;52595;51.608;7.216;2023-05-16T14:33:26;15.30;53.61
65836;SHT30;52595;51.608;7.216;2023-05-16T14:35:52;15.44;53.68
65836;SHT30;52595;51.608;7.216;2023-05-16T14:38:18;15.12;54.31
65836;SHT30;52595;51.608;7.216;2023-05-16T14:40:44;15.05;54.98
65836;SHT30;52595;51.608;7.216;2023-05-16T14:43:09;15.00;54.53
65836;SHT30;52595;51.608;7.216;2023-05-16T14:45:36;14.67;54.74
65836;SHT30;52595;51.608;7.216;2023-05-16T14:48:03;14.57;55.08
65836;SHT30;52595;51.608;7.216;2023-05-16T14:50:29;14.53;55.32
65836;SHT30;52595;51.608;7.216;2023-05-16T14:52:54;14.29;54.86
65836;SHT30;52595;51.608;7.216;2023-05-16T14:55:20;14.32;55.72
65836;SHT30;52595;51.608;7.216;2023-05-16T14:57:45;14.36;55.35
65836;SHT30;52595;51.608;7.216;2023-05-16T15:00:11;14.39;57.17
65836;SHT30;52595;51.608;7.216;2023-05-16T15:02:37;14.04;59.21
65836;SHT30;52595;51.608;7.216;2023-05-16T15:05:03;14.16;60.55
65836;SHT30;52595;51.608;7.216;2023-05-16T15:07:28;14.08;60.88
65836;SHT30;52595;51.608;7.216;2023-05-16T15:09:54;13.99;61.57
65836;SHT30;52595;51.608;7.216;2023-05-16T15:12:19;13.72;62.35
65836;SHT30;52595;51.608;7.216;2023-05-16T15:14:45;13.82;61.63
65836;SHT30;52595;51.608;7.216;2023-05-16T15:17:10;13.77;61.79
65836;SHT30;52595;51.608;7.216;2023-05-16T15:19:36;13.69;62.47
65836;SHT30;52595;51.608;7.216;2023-05-16T15:22:01;13.71;61.33
65836;SHT30;52595;51.608;7.216;2023-05-16T15:24:26;13.89;61.46
65836;SHT30;52595;51.608;7.216;2023-05-16T15:26:52;13.77;60.78
65836;SHT30;52595;51.608;7.216;2023-05-16T15:29:17;13.58;61.96
65836;SHT30;52595;51.608;7.216;2023-05-16T15:31:44;13.69;61.65
65836;SHT30;52595;51.608;7.216;2023-05-16T15:34:10;14.16;60.94
65836;SHT30;52595;51.608;7.216;2023-05-16T15:36:36;14.74;59.69
65836;SHT30;52595;51.608;7.216;2023-05-16T15:39:01;15.88;57.18
65836;SHT30;52595;51.608;7.216;2023-05-16T15:41:27;15.58;56.38
65836;SHT30;52595;51.608;7.216;2023-05-16T15:43:52;15.81;56.35
65836;SHT30;52595;51.608;7.216;2023-05-16T15:46:17;16.52;54.04
65836;SHT30;52595;51.608;7.216;2023-05-16T15:48:43;17.93;51.30
65836;SHT30;52595;51.608;7.216;2023-05-16T15:51:12;17.45;50.62
65836;SHT30;52595;51.608;7.216;2023-05-16T15:53:38;17.82;50.55
65836;SHT30;52595;51.608;7.216;2023-05-16T15:56:04;17.38;52.12